sensor_id;sensor_type;location;lat;lon;timestamp;P1;durP1;ratioP1;P2;durP2;ratioP2
20754;SDS011;26385;48.470;7.938;2022-08-19T00:00:30;20.05;;;18.20;;
20754;SDS011;26385;48.470;7.938;2022-08-19T00:02:56;19.42;;;17.50;;
20754;SDS011;26385;48.470;7.938;2022-08-19T00:05:21;21.20;;;19.17;;
20754;SDS011;26385;48.470;7.938;2022-08-19T00:07:47;22.10;;;19.90;;
20754;SDS011;26385;48.470;7.938;2022-08-19T00:10:14;22.90;;;20.50;;
20754;SDS011;26385;48.470;7.938;2022-08-19T00:12:40;22.52;;;20.33;;
20754;SDS011;26385;48.470;7.938;2022-08-19T00:15:06;22.38;;;20.15;;
20754;SDS011;26385;48.470;7.938;2022-08-19T00:17:36;24.60;;;22.20;;
20754;SDS011;26385;48.470;7.938;2022-08-19T00:20:03;22.52;;;20.33;;
20754;SDS011;26385;48.470;7.938;2022-08-19T00:22:28;23.20;;;20.52;;
20754;SDS011;26385;48.470;7.938;2022-08-19T00:24:53;23.40;;;21.05;;
20754;SDS011;26385;48.470;7.938;2022-08-19T00:27:19;22.88;;;20.30;;
20754;SDS011;26385;48.470;7.938;2022-08-19T00:29:44;23.63;;;19.85;;
20754;SDS011;26385;48.470;7.938;2022-08-19T00:32:09;22.50;;;20.30;;
20754;SDS011;26385;48.470;7.938;2022-08-19T00:34:35;21.80;;;19.55;;
20754;SDS011;26385;48.470;7.938;2022-08-19T00:37:01;21.02;;;18.88;;
20754;SDS011;26385;48.470;7.938;2022-08-19T00:39:26;21.70;;;19.52;;
20754;SDS011;26385;48.470;7.938;2022-08-19T00:41:51;20.75;;;18.70;;
20754;SDS011;26385;48.470;7.938;2022-08-19T00:44:18;22.80;;;20.33;;
20754;SDS011;26385;48.470;7.938;2022-08-19T00:46:47;21.85;;;19.65;;
20754;SDS011;26385;48.470;7.938;2022-08-19T00:49:18;21.58;;;19.48;;
20754;SDS011;26385;48.470;7.938;2022-08-19T00:51:45;21.10;;;19.10;;
20754;SDS011;26385;48.470;7.938;2022-08-19T00:54:13;21.33;;;19.02;;
20754;SDS011;26385;48.470;7.938;2022-08-19T00:56:39;21.67;;;19.52;;
20754;SDS011;26385;48.470;7.938;2022-08-19T00:59:05;21.13;;;18.88;;
20754;SDS011;26385;48.470;7.938;2022-08-19T01:01:38;20.20;;;18.17;;
20754;SDS011;26385;48.470;7.938;2022-08-19T01:04:05;19.90;;;17.90;;
20754;SDS011;26385;48.470;7.938;2022-08-19T01:06:31;19.02;;;17.13;;
20754;SDS011;26385;48.470;7.938;2022-08-19T01:08:59;18.15;;;16.38;;
20754;SDS011;26385;48.470;7.938;2022-08-19T01:11:26;18.17;;;16.33;;
20754;SDS011;26385;48.470;7.938;2022-08-19T01:13:53;18.30;;;16.40;;
20754;SDS011;26385;48.470;7.938;2022-08-19T01:16:20;18.73;;;16.83;;
20754;SDS011;26385;48.470;7.938;2022-08-19T01:18:47;19.92;;;17.73;;
20754;SDS011;26385;48.470;7.938;2022-08-19T01:21:59;18.90;;;16.90;;
20754;SDS011;26385;48.470;7.938;2022-08-19T01:24:13;18.02;;;16.13;;
20754;SDS011;26385;48.470;7.938;2022-08-19T01:26:40;20.08;;;17.92;;
20754;SDS011;26385;48.470;7.938;2022-08-19T01:29:08;18.90;;;17.02;;
20754;SDS011;26385;48.470;7.938;2022-08-19T01:31:34;20.65;;;17.77;;
20754;SDS011;26385;48.470;7.938;2022-08-19T01:34:01;20.73;;;18.60;;
20754;SDS011;26385;48.470;7.938;2022-08-19T01:36:32;19.38;;;17.48;;
20754;SDS011;26385;48.470;7.938;2022-08-19T01:39:00;20.50;;;18.48;;
20754;SDS011;26385;48.470;7.938;2022-08-19T01:41:27;18.20;;;16.30;;
20754;SDS011;26385;48.470;7.938;2022-08-19T01:43:52;18.73;;;16.60;;
20754;SDS011;26385;48.470;7.938;2022-08-19T01:46:18;19.90;;;17.92;;
20754;SDS011;26385;48.470;7.938;2022-08-19T01:48:44;20.35;;;18.30;;
20754;SDS011;26385;48.470;7.938;2022-08-19T01:51:10;20.83;;;17.48;;
20754;SDS011;26385;48.470;7.938;2022-08-19T01:53:37;20.65;;;18.45;;
20754;SDS011;26385;48.470;7.938;2022-08-19T01:56:03;19.92;;;17.83;;
20754;SDS011;26385;48.470;7.938;2022-08-19T01:58:34;19.38;;;17.25;;
20754;SDS011;26385;48.470;7.938;2022-08-19T02:01:03;19.52;;;17.52;;
20754;SDS011;26385;48.470;7.938;2022-08-19T02:03:29;19.63;;;17.55;;
20754;SDS011;26385;48.470;7.938;2022-08-19T02:05:56;20.17;;;18.08;;
20754;SDS011;26385;48.470;7.938;2022-08-19T02:08:24;19.50;;;17.50;;
20754;SDS011;26385;48.470;7.938;2022-08-19T02:10:52;18.77;;;16.48;;
20754;SDS011;26385;48.470;7.938;2022-08-19T02:13:17;18.25;;;16.45;;
20754;SDS011;26385;48.470;7.938;2022-08-19T02:15:43;20.52;;;17.00;;
20754;SDS011;26385;48.470;7.938;2022-08-19T02:18:08;19.65;;;17.48;;
20754;SDS011;26385;48.470;7.938;2022-08-19T02:20:34;21.40;;;18.13;;
20754;SDS011;26385;48.470;7.938;2022-08-19T02:23:00;19.02;;;17.08;;
20754;SDS011;26385;48.470;7.938;2022-08-19T02:25:26;15.30;;;13.80;;
20754;SDS011;26385;48.470;7.938;2022-08-19T02:27:51;19.70;;;17.45;;
20754;SDS011;26385;48.470;7.938;2022-08-19T02:30:17;15.52;;;14.02;;
20754;SDS011;26385;48.470;7.938;2022-08-19T02:32:44;17.48;;;15.70;;
20754;SDS011;26385;48.470;7.938;2022-08-19T02:35:09;18.17;;;16.17;;
20754;SDS011;26385;48.470;7.938;2022-08-19T02:37:35;15.32;;;13.82;;
20754;SDS011;26385;48.470;7.938;2022-08-19T02:40:19;19.20;;;17.30;;
20754;SDS011;26385;48.470;7.938;2022-08-19T02:42:45;18.85;;;16.88;;
20754;SDS011;26385;48.470;7.938;2022-08-19T02:45:11;19.13;;;17.10;;
20754;SDS011;26385;48.470;7.938;2022-08-19T02:47:38;17.83;;;16.02;;
20754;SDS011;26385;48.470;7.938;2022-08-19T02:50:03;18.38;;;16.05;;
20754;SDS011;26385;48.470;7.938;2022-08-19T02:52:31;19.40;;;17.48;;
20754;SDS011;26385;48.470;7.938;2022-08-19T02:54:57;18.50;;;16.63;;
20754;SDS011;26385;48.470;7.938;2022-08-19T02:57:23;17.60;;;15.80;;
20754;SDS011;26385;48.470;7.938;2022-08-19T02:59:48;17.98;;;16.17;;
20754;SDS011;26385;48.470;7.938;2022-08-19T03:02:14;19.33;;;16.58;;
20754;SDS011;26385;48.470;7.938;2022-08-19T03:04:40;16.52;;;14.93;;
20754;SDS011;26385;48.470;7.938;2022-08-19T03:07:06;16.25;;;14.65;;
20754;SDS011;26385;48.470;7.938;2022-08-19T03:09:31;16.48;;;14.88;;
20754;SDS011;26385;48.470;7.938;2022-08-19T03:11:57;16.60;;;15.05;;
20754;SDS011;26385;48.470;7.938;2022-08-19T03:14:22;16.50;;;14.90;;
20754;SDS011;26385;48.470;7.938;2022-08-19T03:16:49;18.42;;;16.27;;
20754;SDS011;26385;48.470;7.938;2022-08-19T03:19:17;16.58;;;14.95;;
20754;SDS011;26385;48.470;7.938;2022-08-19T03:21:46;16.27;;;14.57;;
20754;SDS011;26385;48.470;7.938;2022-08-19T03:24:12;16.52;;;14.45;;
20754;SDS011;26385;48.470;7.938;2022-08-19T03:26:39;17.55;;;15.65;;
20754;SDS011;26385;48.470;7.938;2022-08-19T03:29:05;17.75;;;15.95;;
20754;SDS011;26385;48.470;7.938;2022-08-19T03:31:31;17.63;;;15.70;;
20754;SDS011;26385;48.470;7.938;2022-08-19T03:33:57;17.40;;;15.63;;
20754;SDS011;26385;48.470;7.938;2022-08-19T03:36:23;17.10;;;15.05;;
20754;SDS011;26385;48.470;7.938;2022-08-19T03:38:52;17.10;;;15.30;;
20754;SDS011;26385;48.470;7.938;2022-08-19T03:41:23;16.52;;;14.90;;
20754;SDS011;26385;48.470;7.938;2022-08-19T03:43:50;16.88;;;15.07;;
20754;SDS011;26385;48.470;7.938;2022-08-19T03:46:18;19.30;;;17.02;;
20754;SDS011;26385;48.470;7.938;2022-08-19T03:48:46;19.17;;;17.17;;
20754;SDS011;26385;48.470;7.938;2022-08-19T03:51:17;19.85;;;16.55;;
20754;SDS011;26385;48.470;7.938;2022-08-19T03:53:44;18.70;;;16.73;;
20754;SDS011;26385;48.470;7.938;2022-08-19T03:56:11;14.07;;;12.77;;
20754;SDS011;26385;48.470;7.938;2022-08-19T03:58:38;14.60;;;13.00;;
20754;SDS011;26385;48.470;7.938;2022-08-19T04:01:06;14.23;;;12.20;;
20754;SDS011;26385;48.470;7.938;2022-08-19T04:03:33;15.25;;;13.65;;
20754;SDS011;26385;48.470;7.938;2022-08-19T04:06:08;16.27;;;14.63;;
20754;SDS011;26385;48.470;7.938;2022-08-19T04:08:43;14.32;;;12.93;;
20754;SDS011;26385;48.470;7.938;2022-08-19T04:11:11;17.08;;;14.07;;
20754;SDS011;26385;48.470;7.938;2022-08-19T04:13:38;17.27;;;15.57;;
20754;SDS011;26385;48.470;7.938;2022-08-19T04:16:04;18.45;;;16.48;;
20754;SDS011;26385;48.470;7.938;2022-08-19T04:18:30;17.20;;;15.43;;
20754;SDS011;26385;48.470;7.938;2022-08-19T04:20:56;18.27;;;15.77;;
20754;SDS011;26385;48.470;7.938;2022-08-19T04:23:21;17.80;;;16.00;;
20754;SDS011;26385;48.470;7.938;2022-08-19T04:25:48;17.88;;;16.10;;
20754;SDS011;26385;48.470;7.938;2022-08-19T04:28:13;17.02;;;15.23;;
20754;SDS011;26385;48.470;7.938;2022-08-19T04:30:39;16.17;;;14.55;;
20754;SDS011;26385;48.470;7.938;2022-08-19T04:33:06;18.35;;;15.48;;
20754;SDS011;26385;48.470;7.938;2022-08-19T04:35:36;16.88;;;15.20;;
20754;SDS011;26385;48.470;7.938;2022-08-19T04:38:06;17.58;;;15.55;;
20754;SDS011;26385;48.470;7.938;2022-08-19T04:40:32;17.38;;;15.32;;
20754;SDS011;26385;48.470;7.938;2022-08-19T04:43:17;21.58;;;15.10;;
20754;SDS011;26385;48.470;7.938;2022-08-19T04:45:43;17.05;;;15.25;;
20754;SDS011;26385;48.470;7.938;2022-08-19T04:48:10;16.50;;;14.85;;
20754;SDS011;26385;48.470;7.938;2022-08-19T04:50:39;15.32;;;13.82;;
20754;SDS011;26385;48.470;7.938;2022-08-19T04:53:05;15.73;;;14.13;;
20754;SDS011;26385;48.470;7.938;2022-08-19T04:55:30;17.42;;;14.95;;
20754;SDS011;26385;48.470;7.938;2022-08-19T04:57:55;16.13;;;14.55;;
20754;SDS011;26385;48.470;7.938;2022-08-19T05:00:21;16.42;;;14.75;;
20754;SDS011;26385;48.470;7.938;2022-08-19T05:02:47;15.50;;;13.70;;
20754;SDS011;26385;48.470;7.938;2022-08-19T05:05:14;15.55;;;13.95;;
20754;SDS011;26385;48.470;7.938;2022-08-19T05:07:39;15.25;;;13.85;;
20754;SDS011;26385;48.470;7.938;2022-08-19T05:10:06;15.35;;;13.75;;
20754;SDS011;26385;48.470;7.938;2022-08-19T05:12:32;15.52;;;13.90;;
20754;SDS011;26385;48.470;7.938;2022-08-19T05:14:58;15.10;;;13.52;;
20754;SDS011;26385;48.470;7.938;2022-08-19T05:17:24;15.63;;;14.10;;
20754;SDS011;26385;48.470;7.938;2022-08-19T05:19:51;17.20;;;14.35;;
20754;SDS011;26385;48.470;7.938;2022-08-19T05:22:34;15.07;;;13.50;;
20754;SDS011;26385;48.470;7.938;2022-08-19T05:25:08;15.65;;;14.05;;
20754;SDS011;26385;48.470;7.938;2022-08-19T05:27:36;16.38;;;14.77;;
20754;SDS011;26385;48.470;7.938;2022-08-19T05:30:02;19.67;;;15.98;;
20754;SDS011;26385;48.470;7.938;2022-08-19T05:32:28;18.00;;;14.88;;
20754;SDS011;26385;48.470;7.938;2022-08-19T05:34:54;17.63;;;15.65;;
20754;SDS011;26385;48.470;7.938;2022-08-19T05:37:19;17.63;;;15.73;;
20754;SDS011;26385;48.470;7.938;2022-08-19T05:39:44;18.02;;;14.57;;
20754;SDS011;26385;48.470;7.938;2022-08-19T05:42:11;18.35;;;15.65;;
20754;SDS011;26385;48.470;7.938;2022-08-19T05:44:39;18.58;;;16.48;;
20754;SDS011;26385;48.470;7.938;2022-08-19T05:47:09;18.00;;;16.10;;
20754;SDS011;26385;48.470;7.938;2022-08-19T05:49:37;18.73;;;16.08;;
20754;SDS011;26385;48.470;7.938;2022-08-19T05:52:06;18.17;;;16.38;;
20754;SDS011;26385;48.470;7.938;2022-08-19T05:54:33;19.52;;;17.27;;
20754;SDS011;26385;48.470;7.938;2022-08-19T05:57:00;19.50;;;17.10;;
20754;SDS011;26385;48.470;7.938;2022-08-19T05:59:27;18.13;;;16.23;;
20754;SDS011;26385;48.470;7.938;2022-08-19T06:01:52;20.50;;;16.67;;
20754;SDS011;26385;48.470;7.938;2022-08-19T06:04:20;18.55;;;16.60;;
20754;SDS011;26385;48.470;7.938;2022-08-19T06:06:47;18.50;;;16.15;;
20754;SDS011;26385;48.470;7.938;2022-08-19T06:09:14;19.10;;;17.13;;
20754;SDS011;26385;48.470;7.938;2022-08-19T06:11:41;21.80;;;17.67;;
20754;SDS011;26385;48.470;7.938;2022-08-19T06:14:10;20.67;;;17.88;;
20754;SDS011;26385;48.470;7.938;2022-08-19T06:16:38;20.70;;;18.50;;
20754;SDS011;26385;48.470;7.938;2022-08-19T06:19:07;20.05;;;17.48;;
20754;SDS011;26385;48.470;7.938;2022-08-19T06:21:36;20.33;;;17.90;;
20754;SDS011;26385;48.470;7.938;2022-08-19T06:24:03;20.20;;;18.10;;
20754;SDS011;26385;48.470;7.938;2022-08-19T06:26:29;20.60;;;18.40;;
20754;SDS011;26385;48.470;7.938;2022-08-19T06:28:55;18.60;;;16.67;;
20754;SDS011;26385;48.470;7.938;2022-08-19T06:31:25;21.13;;;18.63;;
20754;SDS011;26385;48.470;7.938;2022-08-19T06:33:52;20.55;;;18.23;;
20754;SDS011;26385;48.470;7.938;2022-08-19T06:38:44;21.50;;;18.88;;
20754;SDS011;26385;48.470;7.938;2022-08-19T06:41:09;20.85;;;18.23;;
20754;SDS011;26385;48.470;7.938;2022-08-19T06:43:35;21.60;;;18.13;;
20754;SDS011;26385;48.470;7.938;2022-08-19T06:46:01;20.65;;;17.48;;
20754;SDS011;26385;48.470;7.938;2022-08-19T06:48:28;22.23;;;18.98;;
20754;SDS011;26385;48.470;7.938;2022-08-19T06:50:53;20.63;;;17.83;;
20754;SDS011;26385;48.470;7.938;2022-08-19T06:53:19;20.55;;;17.95;;
20754;SDS011;26385;48.470;7.938;2022-08-19T06:55:44;25.95;;;18.63;;
20754;SDS011;26385;48.470;7.938;2022-08-19T06:58:10;21.08;;;18.50;;
20754;SDS011;26385;48.470;7.938;2022-08-19T07:00:36;21.42;;;19.23;;
20754;SDS011;26385;48.470;7.938;2022-08-19T07:03:02;21.92;;;19.38;;
20754;SDS011;26385;48.470;7.938;2022-08-19T07:05:27;21.75;;;19.42;;
20754;SDS011;26385;48.470;7.938;2022-08-19T07:07:53;23.55;;;19.77;;
20754;SDS011;26385;48.470;7.938;2022-08-19T07:10:18;21.90;;;18.63;;
20754;SDS011;26385;48.470;7.938;2022-08-19T07:12:44;22.00;;;19.15;;
20754;SDS011;26385;48.470;7.938;2022-08-19T07:15:09;22.80;;;20.30;;
20754;SDS011;26385;48.470;7.938;2022-08-19T07:17:36;20.75;;;18.55;;
20754;SDS011;26385;48.470;7.938;2022-08-19T07:20:04;21.77;;;19.45;;
20754;SDS011;26385;48.470;7.938;2022-08-19T07:22:32;22.25;;;19.23;;
20754;SDS011;26385;48.470;7.938;2022-08-19T07:25:01;23.15;;;20.65;;
20754;SDS011;26385;48.470;7.938;2022-08-19T07:27:28;24.38;;;20.85;;
20754;SDS011;26385;48.470;7.938;2022-08-19T07:29:54;24.42;;;20.77;;
20754;SDS011;26385;48.470;7.938;2022-08-19T07:32:19;22.17;;;18.77;;
20754;SDS011;26385;48.470;7.938;2022-08-19T07:34:45;20.33;;;17.98;;
20754;SDS011;26385;48.470;7.938;2022-08-19T07:37:10;22.15;;;18.50;;
20754;SDS011;26385;48.470;7.938;2022-08-19T07:39:36;22.20;;;19.85;;
20754;SDS011;26385;48.470;7.938;2022-08-19T07:42:05;20.65;;;18.65;;
20754;SDS011;26385;48.470;7.938;2022-08-19T07:44:33;20.77;;;18.63;;
20754;SDS011;26385;48.470;7.938;2022-08-19T07:46:59;22.10;;;17.70;;
20754;SDS011;26385;48.470;7.938;2022-08-19T07:49:25;22.13;;;19.73;;
20754;SDS011;26385;48.470;7.938;2022-08-19T07:51:52;22.10;;;19.80;;
20754;SDS011;26385;48.470;7.938;2022-08-19T07:54:23;21.02;;;18.88;;
20754;SDS011;26385;48.470;7.938;2022-08-19T07:56:50;23.45;;;19.73;;
20754;SDS011;26385;48.470;7.938;2022-08-19T07:59:15;21.45;;;18.67;;
20754;SDS011;26385;48.470;7.938;2022-08-19T08:01:42;20.75;;;18.65;;
20754;SDS011;26385;48.470;7.938;2022-08-19T08:04:08;20.40;;;18.30;;
20754;SDS011;26385;48.470;7.938;2022-08-19T08:06:53;24.35;;;21.85;;
20754;SDS011;26385;48.470;7.938;2022-08-19T08:09:38;23.02;;;20.63;;
20754;SDS011;26385;48.470;7.938;2022-08-19T08:12:06;23.60;;;21.13;;
20754;SDS011;26385;48.470;7.938;2022-08-19T08:14:54;23.15;;;19.40;;
20754;SDS011;26385;48.470;7.938;2022-08-19T08:17:22;23.25;;;19.92;;
20754;SDS011;26385;48.470;7.938;2022-08-19T08:19:49;21.30;;;19.20;;
20754;SDS011;26385;48.470;7.938;2022-08-19T08:22:16;22.38;;;19.70;;
20754;SDS011;26385;48.470;7.938;2022-08-19T08:25:06;25.17;;;22.48;;
20754;SDS011;26385;48.470;7.938;2022-08-19T08:27:37;23.85;;;21.45;;
20754;SDS011;26385;48.470;7.938;2022-08-19T08:30:05;23.52;;;20.92;;
20754;SDS011;26385;48.470;7.938;2022-08-19T08:32:34;21.77;;;19.58;;
20754;SDS011;26385;48.470;7.938;2022-08-19T08:35:00;23.23;;;20.75;;
20754;SDS011;26385;48.470;7.938;2022-08-19T08:37:25;22.88;;;20.48;;
20754;SDS011;26385;48.470;7.938;2022-08-19T08:39:50;22.48;;;20.10;;
20754;SDS011;26385;48.470;7.938;2022-08-19T08:42:30;21.85;;;19.10;;
20754;SDS011;26385;48.470;7.938;2022-08-19T08:45:00;23.38;;;20.80;;
20754;SDS011;26385;48.470;7.938;2022-08-19T08:47:31;22.48;;;20.08;;
20754;SDS011;26385;48.470;7.938;2022-08-19T08:50:13;22.55;;;20.17;;
20754;SDS011;26385;48.470;7.938;2022-08-19T08:52:45;22.17;;;19.73;;
20754;SDS011;26385;48.470;7.938;2022-08-19T08:55:15;23.58;;;21.02;;
20754;SDS011;26385;48.470;7.938;2022-08-19T08:57:49;24.65;;;21.80;;
20754;SDS011;26385;48.470;7.938;2022-08-19T09:02:53;23.83;;;20.88;;
20754;SDS011;26385;48.470;7.938;2022-08-19T09:05:19;26.65;;;22.38;;
20754;SDS011;26385;48.470;7.938;2022-08-19T09:08:00;23.25;;;20.80;;
20754;SDS011;26385;48.470;7.938;2022-08-19T09:10:32;20.58;;;18.50;;
20754;SDS011;26385;48.470;7.938;2022-08-19T09:16:05;22.08;;;19.73;;
20754;SDS011;26385;48.470;7.938;2022-08-19T09:18:50;20.80;;;18.55;;
20754;SDS011;26385;48.470;7.938;2022-08-19T09:21:20;20.10;;;18.08;;
20754;SDS011;26385;48.470;7.938;2022-08-19T09:23:47;20.23;;;17.70;;
20754;SDS011;26385;48.470;7.938;2022-08-19T09:26:18;19.88;;;17.90;;
20754;SDS011;26385;48.470;7.938;2022-08-19T09:28:46;20.23;;;17.77;;
20754;SDS011;26385;48.470;7.938;2022-08-19T09:31:14;19.95;;;17.40;;
20754;SDS011;26385;48.470;7.938;2022-08-19T09:33:48;20.02;;;17.80;;
20754;SDS011;26385;48.470;7.938;2022-08-19T09:36:15;20.13;;;17.73;;
20754;SDS011;26385;48.470;7.938;2022-08-19T09:38:43;19.35;;;17.45;;
20754;SDS011;26385;48.470;7.938;2022-08-19T09:41:11;18.00;;;16.33;;
20754;SDS011;26385;48.470;7.938;2022-08-19T09:43:39;18.00;;;16.17;;
20754;SDS011;26385;48.470;7.938;2022-08-19T09:46:05;19.98;;;17.88;;
20754;SDS011;26385;48.470;7.938;2022-08-19T09:48:34;22.30;;;20.00;;
20754;SDS011;26385;48.470;7.938;2022-08-19T09:51:04;18.55;;;16.65;;
20754;SDS011;26385;48.470;7.938;2022-08-19T09:53:33;19.25;;;17.25;;
20754;SDS011;26385;48.470;7.938;2022-08-19T09:55:58;22.08;;;18.10;;
20754;SDS011;26385;48.470;7.938;2022-08-19T09:58:24;18.00;;;16.20;;
20754;SDS011;26385;48.470;7.938;2022-08-19T10:00:53;19.85;;;17.73;;
20754;SDS011;26385;48.470;7.938;2022-08-19T10:03:19;18.45;;;16.55;;
20754;SDS011;26385;48.470;7.938;2022-08-19T10:05:44;17.25;;;15.55;;
20754;SDS011;26385;48.470;7.938;2022-08-19T10:08:23;18.70;;;16.80;;
20754;SDS011;26385;48.470;7.938;2022-08-19T10:10:51;17.88;;;15.90;;
20754;SDS011;26385;48.470;7.938;2022-08-19T10:13:18;17.48;;;15.55;;
20754;SDS011;26385;48.470;7.938;2022-08-19T10:15:48;19.45;;;17.05;;
20754;SDS011;26385;48.470;7.938;2022-08-19T10:18:15;18.33;;;16.38;;
20754;SDS011;26385;48.470;7.938;2022-08-19T10:20:42;18.60;;;16.70;;
20754;SDS011;26385;48.470;7.938;2022-08-19T10:23:08;17.60;;;15.90;;
20754;SDS011;26385;48.470;7.938;2022-08-19T10:25:34;17.20;;;15.27;;
20754;SDS011;26385;48.470;7.938;2022-08-19T10:27:59;17.45;;;15.48;;
20754;SDS011;26385;48.470;7.938;2022-08-19T10:30:25;17.20;;;15.50;;
20754;SDS011;26385;48.470;7.938;2022-08-19T10:32:50;16.85;;;15.20;;
20754;SDS011;26385;48.470;7.938;2022-08-19T10:35:15;17.00;;;15.20;;
20754;SDS011;26385;48.470;7.938;2022-08-19T10:37:42;18.25;;;16.45;;
20754;SDS011;26385;48.470;7.938;2022-08-19T10:40:07;17.05;;;15.43;;
20754;SDS011;26385;48.470;7.938;2022-08-19T10:42:35;18.23;;;16.42;;
20754;SDS011;26385;48.470;7.938;2022-08-19T10:45:01;20.77;;;16.85;;
20754;SDS011;26385;48.470;7.938;2022-08-19T10:47:27;20.02;;;17.92;;
20754;SDS011;26385;48.470;7.938;2022-08-19T10:49:53;18.23;;;16.33;;
20754;SDS011;26385;48.470;7.938;2022-08-19T10:52:42;20.63;;;17.88;;
20754;SDS011;26385;48.470;7.938;2022-08-19T10:55:09;17.52;;;15.63;;
20754;SDS011;26385;48.470;7.938;2022-08-19T10:57:53;22.40;;;17.67;;
20754;SDS011;26385;48.470;7.938;2022-08-19T11:00:21;17.05;;;15.25;;
20754;SDS011;26385;48.470;7.938;2022-08-19T11:02:48;16.45;;;14.75;;
20754;SDS011;26385;48.470;7.938;2022-08-19T11:05:14;16.38;;;14.75;;
20754;SDS011;26385;48.470;7.938;2022-08-19T11:07:40;18.83;;;14.73;;
20754;SDS011;26385;48.470;7.938;2022-08-19T11:10:06;16.63;;;14.95;;
20754;SDS011;26385;48.470;7.938;2022-08-19T11:12:32;16.42;;;14.73;;
20754;SDS011;26385;48.470;7.938;2022-08-19T11:14:58;17.13;;;14.38;;
20754;SDS011;26385;48.470;7.938;2022-08-19T11:17:23;16.58;;;14.88;;
20754;SDS011;26385;48.470;7.938;2022-08-19T11:19:49;16.13;;;14.55;;
20754;SDS011;26385;48.470;7.938;2022-08-19T11:22:15;14.55;;;12.70;;
20754;SDS011;26385;48.470;7.938;2022-08-19T11:24:40;15.25;;;13.65;;
20754;SDS011;26385;48.470;7.938;2022-08-19T11:27:07;14.77;;;13.10;;
20754;SDS011;26385;48.470;7.938;2022-08-19T11:29:34;15.85;;;14.10;;
20754;SDS011;26385;48.470;7.938;2022-08-19T11:32:04;15.60;;;14.00;;
20754;SDS011;26385;48.470;7.938;2022-08-19T11:34:34;14.10;;;12.80;;
20754;SDS011;26385;48.470;7.938;2022-08-19T11:37:01;17.95;;;14.85;;
20754;SDS011;26385;48.470;7.938;2022-08-19T11:39:28;17.35;;;15.65;;
20754;SDS011;26385;48.470;7.938;2022-08-19T11:41:56;16.10;;;14.35;;
20754;SDS011;26385;48.470;7.938;2022-08-19T11:44:23;16.20;;;14.50;;
20754;SDS011;26385;48.470;7.938;2022-08-19T11:46:48;16.83;;;15.10;;
20754;SDS011;26385;48.470;7.938;2022-08-19T11:49:14;17.85;;;14.15;;
20754;SDS011;26385;48.470;7.938;2022-08-19T11:51:41;14.63;;;12.93;;
20754;SDS011;26385;48.470;7.938;2022-08-19T11:54:08;15.95;;;14.25;;
20754;SDS011;26385;48.470;7.938;2022-08-19T11:56:34;15.38;;;13.88;;
20754;SDS011;26385;48.470;7.938;2022-08-19T11:59:00;15.95;;;14.45;;
20754;SDS011;26385;48.470;7.938;2022-08-19T12:01:26;15.43;;;13.93;;
20754;SDS011;26385;48.470;7.938;2022-08-19T12:03:52;16.13;;;14.50;;
20754;SDS011;26385;48.470;7.938;2022-08-19T12:06:24;15.48;;;13.88;;
20754;SDS011;26385;48.470;7.938;2022-08-19T12:08:53;16.90;;;13.98;;
20754;SDS011;26385;48.470;7.938;2022-08-19T12:11:20;14.25;;;12.80;;
20754;SDS011;26385;48.470;7.938;2022-08-19T12:13:45;14.15;;;12.85;;
20754;SDS011;26385;48.470;7.938;2022-08-19T12:16:12;15.05;;;13.63;;
20754;SDS011;26385;48.470;7.938;2022-08-19T12:18:52;15.93;;;14.32;;
20754;SDS011;26385;48.470;7.938;2022-08-19T12:21:22;16.27;;;14.65;;
20754;SDS011;26385;48.470;7.938;2022-08-19T12:23:52;15.07;;;13.48;;
20754;SDS011;26385;48.470;7.938;2022-08-19T12:26:18;14.35;;;12.95;;
20754;SDS011;26385;48.470;7.938;2022-08-19T12:28:43;14.38;;;12.65;;
20754;SDS011;26385;48.470;7.938;2022-08-19T12:31:09;14.32;;;13.00;;
20754;SDS011;26385;48.470;7.938;2022-08-19T12:33:37;13.60;;;12.30;;
20754;SDS011;26385;48.470;7.938;2022-08-19T12:36:04;12.50;;;11.32;;
20754;SDS011;26385;48.470;7.938;2022-08-19T12:38:31;13.77;;;12.38;;
20754;SDS011;26385;48.470;7.938;2022-08-19T12:40:58;12.77;;;11.52;;
20754;SDS011;26385;48.470;7.938;2022-08-19T12:43:23;18.88;;;15.07;;
20754;SDS011;26385;48.470;7.938;2022-08-19T12:45:49;18.05;;;15.98;;
20754;SDS011;26385;48.470;7.938;2022-08-19T12:48:14;18.50;;;16.65;;
20754;SDS011;26385;48.470;7.938;2022-08-19T12:50:40;20.20;;;16.73;;
20754;SDS011;26385;48.470;7.938;2022-08-19T12:53:07;17.90;;;16.17;;
20754;SDS011;26385;48.470;7.938;2022-08-19T12:55:32;16.92;;;14.68;;
20754;SDS011;26385;48.470;7.938;2022-08-19T12:57:57;15.73;;;13.98;;
20754;SDS011;26385;48.470;7.938;2022-08-19T13:00:23;16.98;;;15.27;;
20754;SDS011;26385;48.470;7.938;2022-08-19T13:02:50;14.85;;;13.27;;
20754;SDS011;26385;48.470;7.938;2022-08-19T13:05:18;16.45;;;14.32;;
20754;SDS011;26385;48.470;7.938;2022-08-19T13:07:47;16.02;;;14.43;;
20754;SDS011;26385;48.470;7.938;2022-08-19T13:10:14;12.93;;;11.80;;
20754;SDS011;26385;48.470;7.938;2022-08-19T13:12:42;14.38;;;12.98;;
20754;SDS011;26385;48.470;7.938;2022-08-19T13:15:08;13.75;;;12.35;;
20754;SDS011;26385;48.470;7.938;2022-08-19T13:17:34;13.65;;;12.35;;
20754;SDS011;26385;48.470;7.938;2022-08-19T13:20:00;13.75;;;12.55;;
20754;SDS011;26385;48.470;7.938;2022-08-19T13:22:26;14.07;;;12.52;;
20754;SDS011;26385;48.470;7.938;2022-08-19T13:24:51;13.23;;;11.98;;
20754;SDS011;26385;48.470;7.938;2022-08-19T13:27:17;12.70;;;11.45;;
20754;SDS011;26385;48.470;7.938;2022-08-19T13:29:43;13.30;;;12.05;;
20754;SDS011;26385;48.470;7.938;2022-08-19T13:32:28;13.15;;;11.85;;
20754;SDS011;26385;48.470;7.938;2022-08-19T13:35:12;12.77;;;11.13;;
20754;SDS011;26385;48.470;7.938;2022-08-19T13:37:38;13.63;;;12.00;;
20754;SDS011;26385;48.470;7.938;2022-08-19T13:40:06;12.65;;;11.18;;
20754;SDS011;26385;48.470;7.938;2022-08-19T13:42:37;13.05;;;11.80;;
20754;SDS011;26385;48.470;7.938;2022-08-19T13:45:03;13.32;;;11.55;;
20754;SDS011;26385;48.470;7.938;2022-08-19T13:47:31;12.95;;;11.80;;
20754;SDS011;26385;48.470;7.938;2022-08-19T13:49:56;13.30;;;12.10;;
20754;SDS011;26385;48.470;7.938;2022-08-19T13:52:22;15.00;;;12.37;;
20754;SDS011;26385;48.470;7.938;2022-08-19T13:54:47;13.32;;;12.02;;
20754;SDS011;26385;48.470;7.938;2022-08-19T13:57:13;14.43;;;13.02;;
20754;SDS011;26385;48.470;7.938;2022-08-19T13:59:39;12.75;;;11.65;;
20754;SDS011;26385;48.470;7.938;2022-08-19T14:02:04;13.87;;;12.47;;
20754;SDS011;26385;48.470;7.938;2022-08-19T14:04:30;13.95;;;12.57;;
20754;SDS011;26385;48.470;7.938;2022-08-19T14:06:55;13.07;;;11.88;;
20754;SDS011;26385;48.470;7.938;2022-08-19T14:09:20;13.10;;;11.93;;
20754;SDS011;26385;48.470;7.938;2022-08-19T14:11:46;14.65;;;12.05;;
20754;SDS011;26385;48.470;7.938;2022-08-19T14:14:11;14.20;;;12.80;;
20754;SDS011;26385;48.470;7.938;2022-08-19T14:16:37;16.85;;;15.15;;
20754;SDS011;26385;48.470;7.938;2022-08-19T14:19:03;18.30;;;16.67;;
20754;SDS011;26385;48.470;7.938;2022-08-19T14:21:28;35.85;;;32.30;;
20754;SDS011;26385;48.470;7.938;2022-08-19T14:23:54;26.60;;;23.90;;
20754;SDS011;26385;48.470;7.938;2022-08-19T14:26:19;22.80;;;20.58;;
20754;SDS011;26385;48.470;7.938;2022-08-19T14:28:48;18.13;;;15.80;;
20754;SDS011;26385;48.470;7.938;2022-08-19T14:31:14;21.42;;;18.17;;